createdAt,value
2018-09-11T00:00:10.206Z,54.06
2018-09-11T00:00:42.258Z,54.64
2018-09-11T00:01:14.321Z,54.06
2018-09-11T00:01:46.387Z,54.54
2018-09-11T00:02:18.397Z,54.54
2018-09-11T00:02:50.448Z,54.44
2018-09-11T00:03:22.696Z,54.54
2018-09-11T00:03:54.824Z,54.35
2018-09-11T00:04:26.885Z,54.06
2018-09-11T00:04:58.903Z,53.96
2018-09-11T00:05:30.950Z,54.64
2018-09-11T00:06:03.047Z,54.16
2018-09-11T00:06:36.373Z,54.06
2018-09-11T00:07:08.453Z,54.64
2018-09-11T00:07:40.509Z,54.44
2018-09-11T00:08:12.524Z,54.44
2018-09-11T00:08:44.560Z,54.06
2018-09-11T00:09:16.651Z,54.16
2018-09-11T00:09:48.718Z,54.54
2018-09-11T00:10:20.774Z,54.44
2018-09-11T00:10:52.819Z,54.06
2018-09-11T00:11:24.870Z,54.06
2018-09-11T00:11:56.953Z,54.06
2018-09-11T00:12:29.031Z,53.96
2018-09-11T00:13:01.081Z,54.35
2018-09-11T00:13:33.154Z,54.44
2018-09-11T00:14:05.264Z,54.54
2018-09-11T00:14:37.326Z,53.96
2018-09-11T00:15:09.389Z,54.35
2018-09-11T00:15:41.412Z,54.44
2018-09-11T00:16:13.500Z,54.06
2018-09-11T00:16:45.533Z,54.44
2018-09-11T00:17:17.620Z,54.25
2018-09-11T00:17:49.695Z,53.96
2018-09-11T00:18:21.834Z,54.44
2018-09-11T00:18:53.928Z,54.06
2018-09-11T00:19:26.009Z,54.54
2018-09-11T00:19:58.048Z,53.96
2018-09-11T00:20:30.600Z,54.54
2018-09-11T00:21:02.666Z,54.44
2018-09-11T00:21:34.703Z,54.44
2018-09-11T00:22:06.756Z,54.06
2018-09-11T00:22:38.785Z,54.44
2018-09-11T00:23:10.947Z,54.16
2018-09-11T00:23:43.015Z,54.54
2018-09-11T00:24:15.075Z,54.06
2018-09-11T00:24:47.145Z,54.06
2018-09-11T00:25:19.232Z,54.44
2018-09-11T00:25:51.295Z,54.64
2018-09-11T00:26:23.353Z,54.06
2018-09-11T00:26:55.446Z,54.44
2018-09-11T00:27:27.512Z,54.54
2018-09-11T00:27:59.643Z,54.16
2018-09-11T00:28:31.850Z,54.06
2018-09-11T00:29:03.868Z,54.25
2018-09-11T00:29:35.920Z,54.54
2018-09-11T00:30:07.937Z,54.16
2018-09-11T00:30:39.983Z,54.54
2018-09-11T00:31:12.060Z,54.64
2018-09-11T00:31:44.150Z,54.64
2018-09-11T00:32:16.174Z,54.06
2018-09-11T00:32:48.306Z,54.25
2018-09-11T00:33:20.380Z,54.54
2018-09-11T00:33:52.430Z,54.16
2018-09-11T00:34:24.533Z,54.16
2018-09-11T00:34:56.691Z,54.16
2018-09-11T00:35:28.787Z,54.44
2018-09-11T00:36:00.804Z,54.16
2018-09-11T00:36:32.871Z,54.54
2018-09-11T00:37:04.940Z,54.54
2018-09-11T00:37:37.033Z,54.16
2018-09-11T00:38:09.123Z,54.16
2018-09-11T00:38:41.205Z,54.06
2018-09-11T00:39:13.259Z,54.54
2018-09-11T00:39:45.346Z,54.64
2018-09-11T00:40:17.516Z,54.64
2018-09-11T00:40:49.599Z,54.25
2018-09-11T00:41:21.667Z,54.54
2018-09-11T00:41:53.695Z,54.54
2018-09-11T00:42:25.755Z,54.64
2018-09-11T00:42:57.840Z,54.06
2018-09-11T00:43:29.894Z,54.35
2018-09-11T00:44:01.982Z,54.64
2018-09-11T00:44:34.043Z,54.54
2018-09-11T00:45:06.130Z,54.64
2018-09-11T00:45:38.184Z,54.54
2018-09-11T00:46:10.260Z,54.16
2018-09-11T00:46:42.392Z,54.54
2018-09-11T00:47:15.145Z,54.83
2018-09-11T00:47:47.165Z,54.25
2018-09-11T00:48:19.211Z,54.54
2018-09-11T00:48:51.274Z,54.25
2018-09-11T00:49:23.309Z,54.74
2018-09-11T00:49:55.395Z,54.83
2018-09-11T00:50:27.465Z,54.44
2018-09-11T00:50:59.511Z,54.83
2018-09-11T00:51:31.556Z,54.64
2018-09-11T00:52:03.621Z,54.44
2018-09-11T00:52:35.655Z,54.83
2018-09-11T00:53:07.673Z,54.83
2018-09-11T00:53:39.784Z,54.25
2018-09-11T00:54:11.863Z,54.25
2018-09-11T00:54:44.011Z,54.83
2018-09-11T00:55:16.124Z,54.74
2018-09-11T00:55:48.203Z,54.25
2018-09-11T00:56:20.254Z,54.25
2018-09-11T00:56:52.242Z,54.74
2018-09-11T00:57:24.293Z,54.25
2018-09-11T00:57:57.135Z,54.74
2018-09-11T00:58:29.176Z,54.74
2018-09-11T00:59:01.247Z,54.74
2018-09-11T00:59:33.356Z,54.74
2018-09-11T01:00:05.459Z,54.25
2018-09-11T01:00:38.277Z,54.25
2018-09-11T01:01:10.340Z,54.83
2018-09-11T01:01:42.404Z,54.83
2018-09-11T01:02:14.458Z,54.35
2018-09-11T01:02:46.501Z,54.35
2018-09-11T01:03:18.641Z,54.35
2018-09-11T01:03:50.786Z,54.64
2018-09-11T01:04:22.924Z,54.74
2018-09-11T01:04:55.059Z,54.25
2018-09-11T01:05:27.125Z,54.74
2018-09-11T01:05:59.187Z,54.74
2018-09-11T01:06:31.246Z,54.74
2018-09-11T01:07:03.283Z,54.35
2018-09-11T01:07:35.382Z,54.25
2018-09-11T01:08:07.445Z,54.25
2018-09-11T01:08:39.495Z,54.25
2018-09-11T01:09:12.288Z,54.35
2018-09-11T01:09:44.459Z,54.54
2018-09-11T01:10:16.713Z,54.83
2018-09-11T01:10:48.708Z,54.74
2018-09-11T01:11:20.710Z,54.74
2018-09-11T01:11:52.778Z,54.64
2018-09-11T01:12:24.836Z,54.64
2018-09-11T01:12:56.913Z,54.83
2018-09-11T01:13:28.944Z,54.44
2018-09-11T01:14:01.010Z,54.35
2018-09-11T01:14:33.081Z,54.83
2018-09-11T01:15:05.166Z,54.35
2018-09-11T01:15:37.210Z,54.44
2018-09-11T01:16:09.249Z,54.74
2018-09-11T01:16:41.322Z,54.44
2018-09-11T01:17:13.392Z,54.83
2018-09-11T01:17:45.427Z,54.74
2018-09-11T01:18:17.509Z,54.83
2018-09-11T01:18:49.518Z,54.74
2018-09-11T01:19:21.533Z,54.83
2018-09-11T01:19:53.595Z,54.74
2018-09-11T01:20:25.661Z,54.83
2018-09-11T01:20:57.718Z,54.74
2018-09-11T01:21:29.776Z,54.35
2018-09-11T01:22:01.841Z,54.83
2018-09-11T01:22:33.892Z,54.74
2018-09-11T01:23:05.900Z,54.83
2018-09-11T01:23:38.709Z,54.74
2018-09-11T01:24:10.873Z,54.54
2018-09-11T01:24:42.879Z,54.74
2018-09-11T01:25:14.946Z,54.35
2018-09-11T01:25:47.018Z,54.74
2018-09-11T01:26:19.068Z,54.44
2018-09-11T01:26:51.954Z,54.44
2018-09-11T01:27:23.987Z,54.83
2018-09-11T01:27:56.061Z,54.83
2018-09-11T01:28:28.081Z,54.83
2018-09-11T01:29:00.130Z,54.44
2018-09-11T01:29:32.183Z,54.54
2018-09-11T01:30:04.252Z,54.44
2018-09-11T01:30:36.257Z,54.44
2018-09-11T01:31:08.318Z,54.64
2018-09-11T01:31:40.381Z,54.64
2018-09-11T01:32:12.425Z,54.64
2018-09-11T01:32:44.494Z,54.64
2018-09-11T01:33:17.145Z,54.74
2018-09-11T01:33:49.222Z,54.74
2018-09-11T01:34:21.247Z,54.64
2018-09-11T01:34:53.327Z,54.74
2018-09-11T01:35:25.414Z,54.54
2018-09-11T01:35:57.466Z,54.44
2018-09-11T01:36:29.556Z,54.54
2018-09-11T01:37:01.620Z,54.35
2018-09-11T01:37:33.663Z,54.44
2018-09-11T01:38:05.730Z,55.02
2018-09-11T01:38:38.306Z,54.93
2018-09-11T01:39:10.406Z,55.02
2018-09-11T01:39:42.464Z,55.02
2018-09-11T01:40:14.513Z,54.74
2018-09-11T01:40:46.652Z,54.54
2018-09-11T01:41:18.821Z,55.02
2018-09-11T01:41:50.986Z,54.64
2018-09-11T01:42:23.038Z,54.25
2018-09-11T01:42:55.100Z,55.02
2018-09-11T01:43:27.146Z,54.35
2018-09-11T01:43:59.233Z,55.02
2018-09-11T01:44:31.523Z,54.54
2018-09-11T01:45:03.598Z,55
2018-09-11T01:45:36.453Z,54.25
2018-09-11T01:46:08.542Z,54.93
2018-09-11T01:46:40.704Z,55.02
2018-09-11T01:47:12.807Z,54.35
2018-09-11T01:47:44.859Z,54.35
2018-09-11T01:48:16.915Z,55.02
2018-09-11T01:48:48.966Z,54.93
2018-09-11T01:49:21.024Z,55.02
2018-09-11T01:49:53.088Z,55.02
2018-09-11T01:50:25.131Z,54.93
2018-09-11T01:50:57.174Z,55.02
2018-09-11T01:51:29.204Z,55.02
2018-09-11T01:52:01.276Z,54.93
2018-09-11T01:52:33.376Z,55.12
2018-09-11T01:53:05.453Z,54.44
2018-09-11T01:53:37.538Z,54.93
2018-09-11T01:54:09.564Z,55.02
2018-09-11T01:54:41.618Z,54.35
2018-09-11T01:55:13.699Z,55.12
2018-09-11T01:55:46.308Z,54.93
2018-09-11T01:56:18.366Z,54.35
2018-09-11T01:56:50.362Z,54.93
2018-09-11T01:57:22.484Z,54.9
2018-09-11T01:57:54.500Z,54.93
2018-09-11T01:58:26.550Z,54.71
2018-09-11T01:58:58.613Z,55.02
2018-09-11T01:59:30.673Z,54.64
2018-09-11T02:00:02.705Z,54.71
2018-09-11T02:00:34.775Z,54.93
2018-09-11T02:01:06.854Z,55.02
2018-09-11T02:01:38.906Z,54.64
2018-09-11T02:02:11.017Z,55.02
2018-09-11T02:02:43.076Z,54.71
2018-09-11T02:03:15.141Z,54.71
2018-09-11T02:03:47.231Z,54.71
2018-09-11T02:04:19.313Z,54.71
2018-09-11T02:04:51.357Z,54.71
2018-09-11T02:05:23.441Z,55.12
2018-09-11T02:05:55.501Z,54.74
2018-09-11T02:06:27.646Z,55
2018-09-11T02:06:59.697Z,54.74
2018-09-11T02:07:31.745Z,54.71
2018-09-11T02:08:03.793Z,54.74
2018-09-11T02:08:35.902Z,55
2018-09-11T02:09:08.013Z,54.61
2018-09-11T02:09:40.115Z,54.74
2018-09-11T02:10:12.177Z,55
2018-09-11T02:10:44.240Z,54.71
2018-09-11T02:11:16.299Z,54.61
2018-09-11T02:11:48.367Z,55.12
2018-09-11T02:12:20.384Z,55.09
2018-09-11T02:12:52.444Z,55.19
2018-09-11T02:13:24.518Z,55.09
2018-09-11T02:13:57.483Z,54.8
2018-09-11T02:14:29.535Z,55.09
2018-09-11T02:15:01.583Z,55.09
2018-09-11T02:15:33.646Z,55.09
2018-09-11T02:16:05.679Z,54.52
2018-09-11T02:16:37.732Z,55.09
2018-09-11T02:17:09.799Z,54.54
2018-09-11T02:17:41.839Z,55.12
2018-09-11T02:18:13.918Z,54.64
2018-09-11T02:18:45.958Z,55.02
2018-09-11T02:19:18.035Z,54.54
2018-09-11T02:19:50.091Z,55.09
2018-09-11T02:20:22.153Z,55.19
2018-09-11T02:20:54.280Z,55.19
2018-09-11T02:21:26.343Z,55.22
2018-09-11T02:21:58.422Z,55.22
2018-09-11T02:22:30.462Z,55.19
2018-09-11T02:23:02.513Z,55.02
2018-09-11T02:23:34.570Z,55
2018-09-11T02:24:06.644Z,55.09
2018-09-11T02:24:38.719Z,54.54
2018-09-11T02:25:10.800Z,55.09
2018-09-11T02:25:42.937Z,54.54
2018-09-11T02:26:15.006Z,54.9
2018-09-11T02:26:47.057Z,54.52
2018-09-11T02:27:19.126Z,55.19
2018-09-11T02:27:51.207Z,54.71
2018-09-11T02:28:23.328Z,55
2018-09-11T02:28:55.395Z,54.42
2018-09-11T02:29:27.441Z,54.61
2018-09-11T02:29:59.489Z,55.09
2018-09-11T02:30:31.554Z,55.02
2018-09-11T02:31:03.672Z,54.44
2018-09-11T02:31:35.699Z,55
2018-09-11T02:32:07.745Z,54.52
2018-09-11T02:32:39.823Z,55.09
2018-09-11T02:33:11.911Z,55
2018-09-11T02:33:43.981Z,54.71
2018-09-11T02:34:16.010Z,55
2018-09-11T02:34:48.134Z,55
2018-09-11T02:35:20.186Z,55
2018-09-11T02:35:52.891Z,55
2018-09-11T02:36:24.883Z,55.09
2018-09-11T02:36:56.966Z,55.09
2018-09-11T02:37:29.039Z,54.8
2018-09-11T02:38:01.115Z,55
2018-09-11T02:38:33.199Z,55.19
2018-09-11T02:39:05.286Z,55
2018-09-11T02:39:37.323Z,54.9
2018-09-11T02:40:09.405Z,55.19
2018-09-11T02:40:41.442Z,55.19
2018-09-11T02:41:13.450Z,54.9
2018-09-11T02:41:45.523Z,55
2018-09-11T02:42:18.257Z,54.8
2018-09-11T02:42:50.261Z,55
2018-09-11T02:43:22.330Z,55.09
2018-09-11T02:43:54.391Z,54.61
2018-09-11T02:44:26.601Z,55.29
2018-09-11T02:44:58.722Z,54.71
2018-09-11T02:45:30.790Z,55.29
2018-09-11T02:46:02.867Z,55.29
2018-09-11T02:46:34.917Z,54.61
2018-09-11T02:47:06.960Z,54.52
2018-09-11T02:47:39.160Z,54.8
2018-09-11T02:48:11.206Z,55.09
2018-09-11T02:48:43.261Z,55.09
2018-09-11T02:49:15.264Z,55.38
2018-09-11T02:49:47.344Z,55.29
2018-09-11T02:50:19.450Z,55.38
2018-09-11T02:50:52.265Z,55.38
2018-09-11T02:51:24.359Z,54.61
2018-09-11T02:51:56.413Z,55.67
2018-09-11T02:52:28.489Z,55.29
2018-09-11T02:53:00.565Z,54.9
2018-09-11T02:53:32.657Z,55
2018-09-11T02:54:04.724Z,54.8
2018-09-11T02:54:36.873Z,55
2018-09-11T02:55:08.967Z,54.8
2018-09-11T02:55:41.025Z,54.9
2018-09-11T02:56:13.109Z,55.67
2018-09-11T02:56:45.220Z,54.9
2018-09-11T02:57:17.868Z,55.38
2018-09-11T02:57:49.925Z,55
2018-09-11T02:58:22.002Z,54.8
2018-09-11T02:58:54.090Z,55.57
2018-09-11T02:59:26.136Z,55
2018-09-11T02:59:58.187Z,54.9
2018-09-11T03:00:30.268Z,54.8
2018-09-11T03:01:02.356Z,55
2018-09-11T03:01:34.409Z,54.52
2018-09-11T03:02:06.465Z,54.8
2018-09-11T03:02:38.504Z,54.9
2018-09-11T03:03:10.594Z,54.9
2018-09-11T03:03:42.659Z,55.57
2018-09-11T03:04:14.715Z,55.57
2018-09-11T03:04:46.795Z,55.57
2018-09-11T03:05:18.872Z,54.8
2018-09-11T03:05:50.948Z,54.8
2018-09-11T03:06:23.502Z,55.38
2018-09-11T03:06:55.553Z,54.8
2018-09-11T03:07:27.586Z,54.9
2018-09-11T03:07:59.627Z,54.8
2018-09-11T03:08:31.708Z,55.57
2018-09-11T03:09:03.740Z,55.48
2018-09-11T03:09:35.785Z,54.9
2018-09-11T03:10:07.869Z,55.48
2018-09-11T03:10:39.903Z,54.8
2018-09-11T03:11:11.963Z,55.38
2018-09-11T03:11:44.050Z,54.8
2018-09-11T03:12:16.115Z,55.48
2018-09-11T03:12:48.221Z,54.8
2018-09-11T03:13:20.265Z,54.71
2018-09-11T03:13:52.327Z,54.8
2018-09-11T03:14:24.376Z,55.48
2018-09-11T03:14:56.453Z,54.71
2018-09-11T03:15:28.539Z,54.8
2018-09-11T03:16:00.663Z,54.8
2018-09-11T03:16:32.737Z,55.38
2018-09-11T03:17:04.798Z,54.8
2018-09-11T03:17:37.496Z,54.71
2018-09-11T03:18:09.592Z,54.8
2018-09-11T03:18:41.717Z,55.48
2018-09-11T03:19:13.735Z,54.8
2018-09-11T03:19:45.824Z,54.71
2018-09-11T03:20:17.862Z,55.38
2018-09-11T03:20:49.908Z,54.71
2018-09-11T03:21:21.936Z,54.9
2018-09-11T03:21:54.028Z,54.8
2018-09-11T03:22:26.068Z,54.8
2018-09-11T03:22:58.125Z,55.48
2018-09-11T03:23:30.245Z,55.38
2018-09-11T03:24:03.189Z,54.71
2018-09-11T03:24:35.247Z,55.38
2018-09-11T03:25:07.291Z,55.29
2018-09-11T03:25:39.361Z,55.38
2018-09-11T03:26:11.394Z,55.29
2018-09-11T03:26:43.440Z,55
2018-09-11T03:27:15.490Z,55.29
2018-09-11T03:27:47.564Z,55.29
2018-09-11T03:28:19.588Z,54.9
2018-09-11T03:28:51.645Z,54.61
2018-09-11T03:29:23.704Z,54.71
2018-09-11T03:29:55.846Z,55
2018-09-11T03:30:27.914Z,55.29
2018-09-11T03:30:59.987Z,54.71
2018-09-11T03:31:32.040Z,55.19
2018-09-11T03:32:04.695Z,54.8
2018-09-11T03:32:36.774Z,55.48
2018-09-11T03:33:08.933Z,55.29
2018-09-11T03:33:40.954Z,54.8
2018-09-11T03:34:13.005Z,55.09
2018-09-11T03:34:45.022Z,54.61
2018-09-11T03:35:18.091Z,55.19
2018-09-11T03:35:50.112Z,54.8
2018-09-11T03:36:22.179Z,55.77
2018-09-11T03:36:54.244Z,54.9
2018-09-11T03:37:26.374Z,55.48
2018-09-11T03:37:58.437Z,54.8
2018-09-11T03:38:30.518Z,54.9
2018-09-11T03:39:02.634Z,55
2018-09-11T03:39:34.806Z,55
2018-09-11T03:40:06.894Z,55.87
2018-09-11T03:40:38.989Z,55.48
2018-09-11T03:41:11.005Z,55.48
2018-09-11T03:41:43.079Z,55.38
2018-09-11T03:42:15.129Z,55.77
2018-09-11T03:42:47.305Z,55.77
2018-09-11T03:43:19.502Z,55.19
2018-09-11T03:43:51.612Z,55.87
2018-09-11T03:44:24.004Z,55
2018-09-11T03:44:55.873Z,55.09
2018-09-11T03:45:27.931Z,55.77
2018-09-11T03:46:00.056Z,55.77
2018-09-11T03:46:32.115Z,56.05
2018-09-11T03:47:04.206Z,54.8
2018-09-11T03:47:36.255Z,55.19
2018-09-11T03:48:08.248Z,54.8
2018-09-11T03:48:40.310Z,55.87
2018-09-11T03:49:12.368Z,54.61
2018-09-11T03:49:44.445Z,55.09
2018-09-11T03:50:16.472Z,55
2018-09-11T03:50:48.524Z,55.77
2018-09-11T03:51:20.601Z,54.9
2018-09-11T03:51:52.672Z,55
2018-09-11T03:52:24.717Z,55.67
2018-09-11T03:52:56.714Z,54.8
2018-09-11T03:53:28.775Z,55.87
2018-09-11T03:54:00.846Z,55.67
2018-09-11T03:54:32.891Z,55.87
2018-09-11T03:55:04.939Z,54.8
2018-09-11T03:55:36.980Z,55.19
2018-09-11T03:56:09.103Z,55.19
2018-09-11T03:56:41.171Z,55
2018-09-11T03:57:13.318Z,55.77
2018-09-11T03:57:45.371Z,55.09
2018-09-11T03:58:17.446Z,55.19
2018-09-11T03:58:49.479Z,55.67
2018-09-11T03:59:22.173Z,55
2018-09-11T03:59:54.206Z,55.19
2018-09-11T04:00:26.265Z,55.09
2018-09-11T04:00:58.299Z,55.09
2018-09-11T04:01:30.380Z,55.67
2018-09-11T04:02:02.427Z,54.8
2018-09-11T04:02:34.492Z,55.57
2018-09-11T04:03:06.534Z,55.67
2018-09-11T04:03:38.607Z,54.9
2018-09-11T04:04:10.692Z,55.09
2018-09-11T04:04:42.763Z,55.19
2018-09-11T04:05:14.861Z,55.29
2018-09-11T04:05:46.909Z,55
2018-09-11T04:06:19.559Z,55.87
2018-09-11T04:06:51.653Z,55.29
2018-09-11T04:07:23.676Z,55.57
2018-09-11T04:07:55.754Z,55.19
2018-09-11T04:08:27.875Z,55.57
2018-09-11T04:08:59.877Z,55.19
2018-09-11T04:09:31.952Z,55.57
2018-09-11T04:10:04.015Z,55.09
2018-09-11T04:10:36.066Z,55.57
2018-09-11T04:11:08.131Z,55.67
2018-09-11T04:11:40.190Z,55.57
2018-09-11T04:12:12.276Z,55.29
2018-09-11T04:12:44.350Z,55
2018-09-11T04:13:16.420Z,55.19
2018-09-11T04:13:48.482Z,55.19
2018-09-11T04:14:20.540Z,55.57
2018-09-11T04:14:52.603Z,55.57
2018-09-11T04:15:24.722Z,55.57
2018-09-11T04:15:56.803Z,55.48
2018-09-11T04:16:28.829Z,55.67
2018-09-11T04:17:00.839Z,55.19
2018-09-11T04:17:32.993Z,55.57
2018-09-11T04:18:05.099Z,55.48
2018-09-11T04:18:37.134Z,55.29
2018-09-11T04:19:09.184Z,55.29
2018-09-11T04:19:41.252Z,55.48
2018-09-11T04:20:13.294Z,55.29
2018-09-11T04:20:45.346Z,54.9
2018-09-11T04:21:17.396Z,55.19
2018-09-11T04:21:49.477Z,55.19
2018-09-11T04:22:21.698Z,55.09
2018-09-11T04:22:53.793Z,55.48
2018-09-11T04:23:25.985Z,55.19
2018-09-11T04:23:58.045Z,55.09
2018-09-11T04:24:30.112Z,55.19
2018-09-11T04:25:02.165Z,55.48
2018-09-11T04:25:34.333Z,55.45
2018-09-11T04:26:06.389Z,55.26
2018-09-11T04:26:38.450Z,55.29
2018-09-11T04:27:10.518Z,55.09
2018-09-11T04:27:42.699Z,55.38
2018-09-11T04:28:14.786Z,55.09
2018-09-11T04:28:46.829Z,55.38
2018-09-11T04:29:18.887Z,55.09
2018-09-11T04:29:50.941Z,55.38
2018-09-11T04:30:22.987Z,54.9
2018-09-11T04:30:55.019Z,55.09
2018-09-11T04:31:27.076Z,55.29
2018-09-11T04:31:59.147Z,55
2018-09-11T04:32:31.233Z,54.9
2018-09-11T04:33:03.383Z,55.29
2018-09-11T04:33:35.430Z,55.19
2018-09-11T04:34:07.522Z,55.45
2018-09-11T04:34:39.516Z,54.8
2018-09-11T04:35:11.638Z,55.77
2018-09-11T04:35:43.645Z,55.38
2018-09-11T04:36:15.778Z,54.87
2018-09-11T04:36:47.872Z,55.48
2018-09-11T04:37:19.904Z,55.09
2018-09-11T04:37:51.960Z,55.57
2018-09-11T04:38:24.022Z,55.38
2018-09-11T04:38:56.074Z,55
2018-09-11T04:39:28.146Z,55.48
2018-09-11T04:40:00.237Z,55.48
2018-09-11T04:40:32.316Z,55.48
2018-09-11T04:41:04.435Z,55.38
2018-09-11T04:41:36.699Z,55.48
2018-09-11T04:42:08.804Z,55.45
2018-09-11T04:42:40.801Z,55.57
2018-09-11T04:43:12.959Z,54.71
2018-09-11T04:43:44.916Z,55.48
2018-09-11T04:44:16.955Z,55.55
2018-09-11T04:44:49.046Z,55.57
2018-09-11T04:45:21.057Z,55.65
2018-09-11T04:45:53.124Z,55.65
2018-09-11T04:46:25.158Z,55.45
2018-09-11T04:46:57.217Z,56.03
2018-09-11T04:47:29.282Z,55.67
2018-09-11T04:48:01.355Z,55.74
2018-09-11T04:48:33.399Z,55.55
2018-09-11T04:49:05.443Z,55.74
2018-09-11T04:49:37.488Z,56.05
2018-09-11T04:50:09.503Z,54.68
2018-09-11T04:50:41.637Z,55.35
2018-09-11T04:51:13.762Z,55.74
2018-09-11T04:51:45.791Z,55.45
2018-09-11T04:52:17.872Z,55.74
2018-09-11T04:52:49.943Z,54.87
2018-09-11T04:53:21.991Z,54.87
2018-09-11T04:53:54.017Z,54.87
2018-09-11T04:54:26.130Z,55.55
2018-09-11T04:54:58.230Z,55.83
2018-09-11T04:55:30.425Z,55.45
2018-09-11T04:56:02.476Z,55.48
2018-09-11T04:56:34.560Z,55.16
2018-09-11T04:57:06.631Z,55.65
2018-09-11T04:57:38.686Z,55.65
2018-09-11T04:58:10.828Z,55.45
2018-09-11T04:58:42.868Z,55.55
2018-09-11T04:59:14.916Z,55.16
2018-09-11T04:59:46.972Z,55.26
2018-09-11T05:00:19.026Z,55.35
2018-09-11T05:00:51.197Z,55.65
2018-09-11T05:01:23.295Z,55.45
2018-09-11T05:01:55.353Z,55.45
2018-09-11T05:02:27.376Z,55.74
2018-09-11T05:02:59.411Z,55.45
2018-09-11T05:03:31.450Z,55.55
2018-09-11T05:04:03.503Z,55.74
2018-09-11T05:04:35.561Z,55.65
2018-09-11T05:05:07.684Z,55.55
2018-09-11T05:05:39.763Z,55.67
2018-09-11T05:06:11.789Z,55.65
2018-09-11T05:06:43.893Z,55.55
2018-09-11T05:07:15.962Z,55.83
2018-09-11T05:07:48.028Z,55.35
2018-09-11T05:08:20.078Z,55.74
2018-09-11T05:08:52.127Z,56.03
2018-09-11T05:09:24.166Z,55.45
2018-09-11T05:09:56.156Z,55.74
2018-09-11T05:10:28.212Z,55.45
2018-09-11T05:11:00.269Z,55.45
2018-09-11T05:11:32.315Z,55.45
2018-09-11T05:12:04.374Z,56.03
2018-09-11T05:12:36.525Z,55.45
2018-09-11T05:13:08.623Z,56.03
2018-09-11T05:13:40.685Z,55.35
2018-09-11T05:14:12.849Z,55.35
2018-09-11T05:14:44.906Z,55.35
2018-09-11T05:15:16.924Z,55.65
2018-09-11T05:15:49.046Z,55.35
2018-09-11T05:16:21.127Z,55.45
2018-09-11T05:16:53.156Z,55.65
2018-09-11T05:17:25.178Z,56.03
2018-09-11T05:17:57.188Z,55.93
2018-09-11T05:18:29.231Z,55.74
2018-09-11T05:19:01.351Z,55.83
2018-09-11T05:19:33.353Z,55.74
2018-09-11T05:20:05.404Z,55.35
2018-09-11T05:20:37.447Z,55.55
2018-09-11T05:21:09.483Z,55.83
2018-09-11T05:21:41.476Z,55.83
2018-09-11T05:22:13.462Z,55.55
2018-09-11T05:22:45.498Z,55.93
2018-09-11T05:23:17.523Z,55.83
2018-09-11T05:23:49.548Z,55.83
2018-09-11T05:24:21.620Z,55.74
2018-09-11T05:24:53.660Z,55.55
2018-09-11T05:25:25.761Z,55.55
2018-09-11T05:25:57.822Z,55.55
2018-09-11T05:26:29.865Z,55.65
2018-09-11T05:27:01.933Z,55.35
2018-09-11T05:27:34.083Z,55.65
2018-09-11T05:28:06.061Z,55.55
2018-09-11T05:28:38.161Z,55.55
2018-09-11T05:29:10.375Z,55.83
2018-09-11T05:29:42.386Z,55.35
2018-09-11T05:30:14.460Z,55.55
2018-09-11T05:30:46.472Z,55.45
2018-09-11T05:31:18.546Z,55.55
2018-09-11T05:31:50.570Z,55.83
2018-09-11T05:32:22.628Z,55.55
2018-09-11T05:32:54.701Z,55.35
2018-09-11T05:33:26.755Z,55.55
2018-09-11T05:33:58.793Z,55.55
2018-09-11T05:34:30.823Z,55.55
2018-09-11T05:35:02.907Z,55.55
2018-09-11T05:35:34.983Z,55.83
2018-09-11T05:36:07.373Z,55.83
2018-09-11T05:36:39.444Z,55.55
2018-09-11T05:37:11.551Z,55.83
2018-09-11T05:37:43.578Z,55.65
2018-09-11T05:38:15.628Z,55.55
2018-09-11T05:38:47.637Z,55.26
2018-09-11T05:39:19.665Z,55.26
2018-09-11T05:39:51.721Z,55.55
2018-09-11T05:40:23.741Z,55.74
2018-09-11T05:40:55.840Z,55.65
2018-09-11T05:41:27.919Z,55.87
2018-09-11T05:41:59.929Z,55.83
2018-09-11T05:42:32.015Z,55.74
2018-09-11T05:43:04.759Z,55.45
2018-09-11T05:43:36.857Z,55.74
2018-09-11T05:44:08.932Z,55.74
2018-09-11T05:44:40.978Z,55.55
2018-09-11T05:45:13.051Z,55.35
2018-09-11T05:45:45.082Z,55.35
2018-09-11T05:46:17.234Z,55.45
2018-09-11T05:46:49.271Z,55.38
2018-09-11T05:47:21.844Z,55.35
2018-09-11T05:47:53.885Z,55.26
2018-09-11T05:48:25.944Z,55.65
2018-09-11T05:48:58.002Z,55.57
2018-09-11T05:49:30.072Z,55.83
2018-09-11T05:50:02.082Z,55.57
2018-09-11T05:50:34.178Z,55.45
2018-09-11T05:51:06.273Z,55.77
2018-09-11T05:51:38.322Z,55.45
2018-09-11T05:52:10.362Z,55.74
2018-09-11T05:52:42.444Z,55.45
2018-09-11T05:53:14.516Z,55.29
2018-09-11T05:53:46.594Z,55.57
2018-09-11T05:54:18.648Z,55.48
2018-09-11T05:54:50.724Z,55.77
2018-09-11T05:55:22.749Z,55.77
2018-09-11T05:55:54.773Z,55.77
2018-09-11T05:56:26.835Z,55.67
2018-09-11T05:56:58.852Z,55.29
2018-09-11T05:57:30.921Z,55.48
2018-09-11T05:58:02.966Z,55.48
2018-09-11T05:58:35.045Z,55.29
2018-09-11T05:59:07.146Z,55.57
2018-09-11T05:59:39.183Z,55.77
2018-09-11T06:00:11.206Z,55.67
2018-09-11T06:00:43.251Z,55.87
2018-09-11T06:01:15.424Z,55.38
2018-09-11T06:01:47.515Z,55.67
2018-09-11T06:02:19.538Z,55.57
2018-09-11T06:02:51.612Z,55.29
2018-09-11T06:03:23.632Z,55.57
2018-09-11T06:03:55.669Z,55.57
2018-09-11T06:04:27.706Z,55.87
2018-09-11T06:04:59.804Z,55.48
2018-09-11T06:05:32.058Z,55.87
2018-09-11T06:06:04.053Z,55.77
2018-09-11T06:06:36.175Z,55.29
2018-09-11T06:07:08.186Z,55.96
2018-09-11T06:07:40.216Z,55.57
2018-09-11T06:08:12.292Z,55.87
2018-09-11T06:08:44.365Z,55.57
2018-09-11T06:09:16.482Z,55.57
2018-09-11T06:09:48.623Z,55.57
2018-09-11T06:10:20.766Z,55.29
2018-09-11T06:10:52.802Z,55.38
2018-09-11T06:11:24.897Z,56.05
2018-09-11T06:11:56.937Z,55.48
2018-09-11T06:12:28.991Z,55.57
2018-09-11T06:13:01.106Z,55.38
2018-09-11T06:13:33.129Z,55.67
2018-09-11T06:14:05.181Z,55.87
2018-09-11T06:14:37.204Z,55.38
2018-09-11T06:15:09.233Z,55.38
2018-09-11T06:15:41.276Z,55.77
2018-09-11T06:16:13.324Z,55.57
2018-09-11T06:16:45.370Z,55.87
2018-09-11T06:17:17.409Z,55.48
2018-09-11T06:17:49.458Z,55.77
2018-09-11T06:18:21.529Z,55.41
2018-09-11T06:18:53.574Z,55.6
2018-09-11T06:19:25.593Z,55.87
2018-09-11T06:19:57.622Z,55.48
2018-09-11T06:20:29.714Z,55.6
2018-09-11T06:21:01.723Z,55.87
2018-09-11T06:21:33.817Z,55.77
2018-09-11T06:22:05.887Z,55.38
2018-09-11T06:22:37.955Z,55.41
2018-09-11T06:23:09.970Z,55.51
2018-09-11T06:23:42.011Z,55.89
2018-09-11T06:24:14.034Z,55.7
2018-09-11T06:24:46.064Z,55.7
2018-09-11T06:25:18.157Z,55.41
2018-09-11T06:25:50.351Z,55.99
2018-09-11T06:26:23.314Z,55.41
2018-09-11T06:26:55.395Z,55.51
2018-09-11T06:27:27.472Z,55.6
2018-09-11T06:27:59.555Z,55.51
2018-09-11T06:28:31.628Z,55.79
2018-09-11T06:29:03.760Z,55.6
2018-09-11T06:29:35.918Z,55.41
2018-09-11T06:30:07.983Z,55.41
2018-09-11T06:30:40.083Z,55.51
2018-09-11T06:31:12.143Z,55.51
2018-09-11T06:31:44.208Z,55.6
2018-09-11T06:32:16.346Z,55.51
2018-09-11T06:32:48.390Z,55.31
2018-09-11T06:33:20.451Z,55.7
2018-09-11T06:33:52.488Z,55.79
2018-09-11T06:34:24.708Z,55.31
2018-09-11T06:34:56.861Z,55.51
2018-09-11T06:35:29.075Z,55.6
2018-09-11T06:36:01.247Z,55.79
2018-09-11T06:36:33.394Z,55.41
2018-09-11T06:37:05.459Z,55.79
2018-09-11T06:37:37.477Z,55.7
2018-09-11T06:38:09.526Z,55.6
2018-09-11T06:38:41.550Z,55.73
2018-09-11T06:39:13.605Z,55.63
2018-09-11T06:39:45.684Z,55.24
2018-09-11T06:40:17.747Z,55.34
2018-09-11T06:40:49.872Z,55.05
2018-09-11T06:41:22.079Z,55.63
2018-09-11T06:41:54.079Z,55.63
2018-09-11T06:42:26.145Z,54.96
2018-09-11T06:42:58.206Z,56.11
2018-09-11T06:43:30.234Z,55.63
2018-09-11T06:44:02.306Z,56.11
2018-09-11T06:44:34.369Z,55.82
2018-09-11T06:45:06.405Z,56.01
2018-09-11T06:45:38.530Z,55.63
2018-09-11T06:46:10.605Z,55.73
2018-09-11T06:46:42.679Z,55.63
2018-09-11T06:47:14.761Z,55.63
2018-09-11T06:47:46.844Z,55.44
2018-09-11T06:48:19.592Z,54.86
2018-09-11T06:48:51.726Z,55.05
2018-09-11T06:49:23.776Z,54.86
2018-09-11T06:49:55.824Z,56.01
2018-09-11T06:50:27.853Z,54.98
2018-09-11T06:50:59.886Z,55.36
2018-09-11T06:51:31.973Z,55.46
2018-09-11T06:52:04.013Z,55.46
2018-09-11T06:52:36.064Z,55.56
2018-09-11T06:53:08.141Z,55.56
2018-09-11T06:53:40.182Z,55.46
2018-09-11T06:54:12.233Z,55.36
2018-09-11T06:54:44.653Z,55.18
2018-09-11T06:55:16.799Z,55.18
2018-09-11T06:55:49.087Z,55.36
2018-09-11T06:56:21.182Z,55.56